Time;durP1;ratioP1;P1;durP2;ratioP2;P2;SDS_P1;SDS_P2;PMS_P1;PMS_P2;Temp;Humidity;BMP_temperature;BMP_pressure;BME280_temperature;BME280_humidity;BME280_pressure;Samples;Min_cycle;Max_cycle;Signal;HPM_P1;HPM_P2
2020/12/17 00:00:21;;;;;;;9.60;6.30;;;;;;;11.93;79.61;100892.25;5070135;28;20396;-63
2020/12/17 00:02:48;;;;;;;17.05;9.98;;;;;;;11.96;80.20;100894.38;5020675;28;20053;-66
2020/12/17 00:05:16;;;;;;;12.65;6.32;;;;;;;11.73;80.57;100907.44;5054774;28;20072;-64
2020/12/17 00:07:43;;;;;;;11.70;5.40;;;;;;;11.73;80.99;100906.59;5054260;28;20060;-63
2020/12/17 00:10:11;;;;;;;9.98;4.55;;;;;;;11.70;81.22;100910.00;5055000;28;20053;-63
2020/12/17 00:12:43;;;;;;;10.35;5.55;;;;;;;11.74;81.45;100911.81;5054067;28;20048;-62
2020/12/17 00:15:15;;;;;;;12.60;5.63;;;;;;;11.74;81.41;100902.72;5054607;28;20053;-64
2020/12/17 00:17:49;;;;;;;10.98;5.05;;;;;;;11.64;82.03;100909.31;5054996;28;20056;-65
2020/12/17 00:20:19;;;;;;;9.10;4.70;;;;;;;11.76;81.66;100909.56;5051783;28;20064;-64
2020/12/17 00:22:46;;;;;;;11.43;5.00;;;;;;;11.68;82.17;100915.03;5054559;28;20057;-66
2020/12/17 00:25:18;;;;;;;10.82;5.57;;;;;;;11.71;81.82;100917.13;5054024;28;20048;-65
2020/12/17 00:27:46;;;;;;;8.50;4.82;;;;;;;11.62;82.85;100916.25;5054194;28;20496;-63
2020/12/17 00:30:14;;;;;;;8.98;5.05;;;;;;;11.51;83.28;100920.38;5053978;28;20056;-62
2020/12/17 00:32:42;;;;;;;10.20;5.28;;;;;;;11.62;83.18;100925.34;5054243;28;20052;-63
2020/12/17 00:35:10;;;;;;;10.57;5.13;;;;;;;11.64;83.18;100925.03;5054202;28;20055;-63
2020/12/17 00:37:37;;;;;;;8.52;5.00;;;;;;;11.74;82.63;100924.78;5054047;28;20480;-66
2020/12/17 00:40:10;;;;;;;7.05;4.47;;;;;;;11.64;82.61;100934.16;5054574;28;20051;-64
2020/12/17 00:42:41;;;;;;;8.35;5.00;;;;;;;11.57;83.15;100931.00;5053721;28;20522;-62
2020/12/17 00:45:08;;;;;;;8.77;5.05;;;;;;;11.50;83.24;100935.31;5054507;28;20404;-64
2020/12/17 00:47:35;;;;;;;9.15;4.70;;;;;;;11.54;82.84;100939.88;5054619;28;20049;-65
2020/12/17 00:50:04;;;;;;;8.57;5.00;;;;;;;11.56;83.24;100934.84;5054509;28;20056;-63
2020/12/17 00:52:35;;;;;;;7.35;4.38;;;;;;;11.59;83.05;100949.97;5054205;28;20072;-64
2020/12/17 00:55:03;;;;;;;10.23;4.68;;;;;;;11.62;82.49;100944.66;5053353;28;20060;-65
2020/12/17 00:57:30;;;;;;;8.45;5.07;;;;;;;11.52;82.82;100941.34;5053154;28;20492;-66
2020/12/17 00:59:57;;;;;;;8.48;4.47;;;;;;;11.79;81.88;100952.25;5053533;28;20056;-63
2020/12/17 01:02:24;;;;;;;8.40;4.45;;;;;;;11.58;82.51;100948.34;5052873;28;20064;-63
2020/12/17 01:04:51;;;;;;;8.93;4.88;;;;;;;11.71;82.06;100956.59;5053755;28;20408;-63
2020/12/17 01:07:19;;;;;;;9.93;5.22;;;;;;;11.71;82.28;100944.75;5053580;28;20045;-64
2020/12/17 01:09:46;;;;;;;8.73;5.90;;;;;;;11.67;82.28;100952.00;5053874;28;20396;-64
2020/12/17 01:12:13;;;;;;;7.38;4.22;;;;;;;11.57;82.29;100960.50;5035606;28;20060;-62
2020/12/17 01:19:08;;;;;;;10.77;5.10;;;;;;;11.69;82.09;100969.06;5053058;28;20045;-65
2020/12/17 01:21:35;;;;;;;9.35;5.10;;;;;;;11.69;82.56;100980.09;5053301;28;20508;-65
2020/12/17 01:24:02;;;;;;;10.73;4.95;;;;;;;11.66;82.37;100972.47;5053598;28;20059;-63
2020/12/17 01:26:29;;;;;;;10.27;5.22;;;;;;;11.57;82.79;100966.84;5053139;28;20045;-65
2020/12/17 01:33:24;;;;;;;18.77;13.32;;;;;;;11.51;83.77;100942.44;5053544;28;20365;-64
2020/12/17 01:35:51;;;;;;;12.90;5.63;;;;;;;11.48;83.68;100929.28;5053500;28;20072;-64
2020/12/17 01:38:18;;;;;;;10.02;5.40;;;;;;;11.41;83.68;100923.41;5052847;28;20053;-64
2020/12/17 01:40:46;;;;;;;12.20;5.45;;;;;;;11.45;83.35;100924.41;5053248;28;20056;-64
2020/12/17 01:47:39;;;;;;;8.85;4.97;;;;;;;11.22;84.38;100963.03;5052848;28;20045;-64
2020/12/17 01:50:07;;;;;;;8.88;4.78;;;;;;;11.03;85.22;100991.88;5053153;28;20040;-64
2020/12/17 01:52:34;;;;;;;10.93;5.30;;;;;;;11.08;85.76;100995.31;5035535;28;20048;-62
2020/12/17 01:55:01;;;;;;;10.60;5.10;;;;;;;11.16;85.50;101002.84;5052685;28;20045;-64
2020/12/17 01:57:31;;;;;;;10.60;4.82;;;;;;;11.48;84.71;101020.31;5035286;28;20041;-63
2020/12/17 02:04:34;;;;;;;9.95;5.40;;;;;;;11.23;85.51;101032.75;5052690;28;20395;-63
2020/12/17 02:07:01;;;;;;;9.73;5.35;;;;;;;11.32;85.06;101028.97;5035004;28;20392;-66
2020/12/17 02:09:27;;;;;;;10.25;5.35;;;;;;;11.29;85.04;101034.28;5034807;28;20524;-66
2020/12/17 02:11:55;;;;;;;7.70;4.82;;;;;;;11.23;85.31;101030.00;5035454;28;20412;-66
2020/12/17 02:14:23;;;;;;;9.10;5.43;;;;;;;11.25;85.15;101028.56;5052716;28;20412;-67
2020/12/17 02:16:50;;;;;;;9.25;5.03;;;;;;;11.22;85.56;101039.41;5056643;28;20053;-66
2020/12/17 02:19:18;;;;;;;11.07;5.38;;;;;;;11.24;85.06;101043.47;5056950;28;20060;-69
2020/12/17 02:21:45;;;;;;;8.30;5.00;;;;;;;11.33;84.94;101033.34;5057151;28;20052;-67
2020/12/17 02:24:13;;;;;;;9.35;5.72;;;;;;;11.28;84.59;101035.38;5056568;28;20045;-69
2020/12/17 02:26:40;;;;;;;8.48;5.03;;;;;;;11.39;84.25;101023.00;5048907;28;20400;-68
2020/12/17 02:29:07;;;;;;;9.50;5.00;;;;;;;11.30;84.44;101033.13;5056232;28;20056;-65
2020/12/17 02:31:36;;;;;;;8.70;5.30;;;;;;;11.27;84.15;101039.28;5056188;28;20064;-67
2020/12/17 02:34:03;;;;;;;7.45;4.90;;;;;;;11.27;84.20;101047.56;5056254;28;20045;-63
2020/12/17 02:36:30;;;;;;;8.23;5.47;;;;;;;11.14;84.42;101059.44;5055938;28;20052;-65
2020/12/17 02:38:59;;;;;;;7.80;4.72;;;;;;;11.26;84.45;101056.97;5038354;28;20071;-61
2020/12/17 02:41:26;;;;;;;7.93;4.93;;;;;;;11.38;84.19;101053.66;5056541;28;20057;-63
2020/12/17 02:43:53;;;;;;;8.00;5.32;;;;;;;11.16;84.49;101063.50;5038890;28;20075;-64
2020/12/17 02:46:21;;;;;;;9.10;5.28;;;;;;;11.24;84.51;101073.00;5038879;28;20503;-64
2020/12/17 02:48:52;;;;;;;10.50;5.32;;;;;;;11.28;84.40;101080.34;5056461;28;20056;-63
2020/12/17 02:51:21;;;;;;;11.20;5.15;;;;;;;11.29;84.41;101084.75;5057372;28;20044;-65
2020/12/17 02:53:47;;;;;;;9.25;5.80;;;;;;;11.39;84.16;101072.66;5056050;28;20052;-63
2020/12/17 02:56:16;;;;;;;9.43;4.93;;;;;;;11.31;84.04;101085.22;5055567;28;20057;-65
2020/12/17 02:58:43;;;;;;;8.90;5.22;;;;;;;11.41;83.49;101069.56;5070857;28;20403;-64
2020/12/17 03:01:10;;;;;;;9.00;5.30;;;;;;;11.39;83.42;101067.13;5056187;28;20064;-64
2020/12/17 03:03:37;;;;;;;7.22;4.30;;;;;;;11.39;82.91;101072.66;5056327;28;20045;-63
2020/12/17 03:06:05;;;;;;;7.25;4.47;;;;;;;11.31;82.91;101076.16;5038554;28;20049;-62
2020/12/17 03:08:33;;;;;;;9.73;5.50;;;;;;;11.30;82.54;101086.34;5055693;28;20056;-63
2020/12/17 03:11:00;;;;;;;8.90;4.43;;;;;;;11.28;83.15;101096.88;5055772;28;20041;-63
2020/12/17 03:13:27;;;;;;;6.55;4.07;;;;;;;11.32;82.83;101108.09;5055317;28;20045;-62
2020/12/17 03:15:54;;;;;;;8.40;4.78;;;;;;;11.28;82.86;101112.59;5056020;28;20392;-65
2020/12/17 03:18:21;;;;;;;8.45;4.57;;;;;;;11.29;82.51;101115.06;5055897;28;20045;-65
2020/12/17 03:20:48;;;;;;;7.68;4.45;;;;;;;11.19;83.13;101120.78;5055520;28;20488;-65
2020/12/17 03:23:15;;;;;;;7.70;4.18;;;;;;;11.36;82.33;101120.16;5055932;28;20041;-66
2020/12/17 03:25:42;;;;;;;7.75;4.25;;;;;;;11.43;81.71;101115.03;5055857;28;20045;-63
2020/12/17 03:28:08;;;;;;;9.48;4.72;;;;;;;11.46;81.37;101128.22;5055354;28;20056;-66
2020/12/17 03:34:59;;;;;;;6.85;4.15;;;;;;;11.34;82.52;101139.78;5055131;28;20045;-63
2020/12/17 03:37:26;;;;;;;7.65;4.45;;;;;;;11.34;82.30;101141.72;5054978;28;20049;-63
2020/12/17 03:39:53;;;;;;;8.82;4.18;;;;;;;11.49;82.01;101138.63;5055585;28;20396;-62
2020/12/17 03:42:20;;;;;;;8.88;4.45;;;;;;;11.38;81.77;101141.91;5055175;28;20068;-62
2020/12/17 03:44:46;;;;;;;8.43;4.30;;;;;;;11.47;81.36;101148.34;5054598;28;20389;-63
2020/12/17 03:47:14;;;;;;;9.15;4.47;;;;;;;11.26;81.98;101142.44;5054982;28;20053;-65
2020/12/17 03:49:41;;;;;;;7.82;4.35;;;;;;;11.21;82.26;101150.78;5055712;28;20053;-66
2020/12/17 03:52:10;;;;;;;7.55;4.28;;;;;;;11.14;82.19;101158.69;5054888;28;20045;-62
2020/12/17 03:54:37;;;;;;;8.50;4.28;;;;;;;11.23;82.12;101154.91;5055048;28;20056;-64
2020/12/17 03:57:04;;;;;;;8.02;4.00;;;;;;;11.34;81.71;101164.59;5054651;28;20041;-65
2020/12/17 03:59:31;;;;;;;6.85;4.10;;;;;;;11.15;82.02;101163.06;5036347;28;20056;-67
2020/12/17 04:01:58;;;;;;;9.77;4.30;;;;;;;11.07;82.30;101172.06;5054490;28;20060;-67
2020/12/17 04:04:25;;;;;;;8.77;4.00;;;;;;;11.15;81.96;101174.94;5054333;28;20049;-66
2020/12/17 04:06:52;;;;;;;6.43;4.28;;;;;;;11.26;81.73;101176.34;5055177;28;20041;-65
2020/12/17 04:09:18;;;;;;;9.07;3.78;;;;;;;11.20;81.79;101174.81;5055455;28;20523;-63
2020/12/17 04:11:45;;;;;;;6.90;3.83;;;;;;;11.37;81.34;101184.44;5054976;28;20392;-63
2020/12/17 04:14:13;;;;;;;8.40;4.47;;;;;;;11.31;81.29;101190.00;5054656;28;20049;-65
2020/12/17 04:16:40;;;;;;;5.82;3.92;;;;;;;11.56;80.93;101185.91;5054774;28;20045;-64
2020/12/17 04:19:07;;;;;;;8.13;3.85;;;;;;;11.59;79.99;101185.31;5054858;28;20059;-63
2020/12/17 04:21:33;;;;;;;8.15;3.67;;;;;;;11.45;80.36;101183.69;5054986;28;20455;-63
2020/12/17 04:24:00;;;;;;;7.50;4.30;;;;;;;11.33;80.69;101185.00;5053995;28;20056;-65
2020/12/17 04:26:27;;;;;;;8.00;4.05;;;;;;;11.17;81.35;101182.88;5054485;28;20062;-63
2020/12/17 04:28:54;;;;;;;8.80;4.20;;;;;;;11.20;81.46;101196.88;5054405;28;20396;-64
2020/12/17 04:31:21;;;;;;;8.35;4.00;;;;;;;11.33;81.30;101198.81;5053648;28;20063;-63
2020/12/17 04:33:48;;;;;;;8.32;4.40;;;;;;;11.13;81.12;101196.47;5053995;28;20057;-62
2020/12/17 04:36:15;;;;;;;7.18;4.03;;;;;;;11.04;82.14;101203.81;5054340;28;20052;-63
2020/12/17 04:38:42;;;;;;;7.97;4.50;;;;;;;11.14;81.79;101195.31;5053713;28;20064;-65
2020/12/17 04:41:19;;;;;;;9.68;5.15;;;;;;;11.08;81.72;101206.75;5036911;28;20052;-65
2020/12/17 04:43:47;;;;;;;7.75;4.20;;;;;;;10.97;82.27;101203.38;5053783;28;20392;-64
2020/12/17 04:50:45;;;;;;;8.25;3.72;;;;;;;10.87;82.18;101225.63;5054080;28;20049;-65
2020/12/17 04:53:15;;;;;;;11.57;4.10;;;;;;;10.82;82.42;101230.41;5053558;28;20056;-65
2020/12/17 04:55:47;;;;;;;9.32;4.40;;;;;;;10.90;82.10;101230.53;5035867;28;20049;-62
2020/12/17 04:58:19;;;;;;;9.65;4.40;;;;;;;10.79;82.36;101231.00;5037428;28;20041;-64
2020/12/17 05:05:10;;;;;;;12.25;4.32;;;;;;;10.98;81.83;101232.56;5053868;28;20047;-63
2020/12/17 05:07:40;;;;;;;9.18;4.05;;;;;;;10.88;81.89;101234.72;5054451;28;20053;-62
2020/12/17 05:10:07;;;;;;;9.40;3.95;;;;;;;10.81;81.52;101237.84;5054293;28;20045;-63
2020/12/17 05:12:34;;;;;;;10.13;3.90;;;;;;;10.82;81.83;101245.00;5068666;28;20052;-63
2020/12/17 05:19:38;;;;;;;10.38;3.60;;;;;;;10.77;81.67;101266.31;5053437;28;20377;-64
2020/12/17 05:22:05;;;;;;;18.92;4.80;;;;;;;10.80;81.65;101265.72;5053095;28;20060;-63
2020/12/17 05:24:32;;;;;;;12.63;4.30;;;;;;;10.82;81.19;101269.81;5053085;28;20067;-63
2020/12/17 05:26:59;;;;;;;8.02;4.13;;;;;;;10.54;81.97;101270.81;5052366;28;20049;-63
2020/12/17 05:29:26;;;;;;;9.73;3.95;;;;;;;10.76;81.87;101282.03;5053358;28;20049;-63
2020/12/17 05:31:53;;;;;;;9.27;4.20;;;;;;;10.75;81.56;101285.91;5053233;28;20056;-63
2020/12/17 05:34:21;;;;;;;9.75;3.97;;;;;;;10.77;81.65;101286.44;5035416;28;20060;-64
2020/12/17 05:36:48;;;;;;;10.52;4.40;;;;;;;10.68;81.63;101285.47;5053170;28;20049;-63
2020/12/17 05:39:18;;;;;;;13.82;4.57;;;;;;;10.53;82.13;101280.19;5052780;28;20056;-63
2020/12/17 05:41:47;;;;;;;9.38;3.65;;;;;;;10.62;81.93;101283.91;5053496;28;20053;-64
2020/12/17 05:48:44;;;;;;;11.38;3.97;;;;;;;10.40;82.48;101289.22;5052747;28;20053;-68
2020/12/17 05:51:18;;;;;;;8.73;3.90;;;;;;;10.56;82.15;101290.63;5052545;28;20507;-64
2020/12/17 05:53:50;;;;;;;14.52;4.55;;;;;;;10.42;82.30;101299.94;5052567;28;20049;-68
2020/12/17 05:56:25;;;;;;;11.32;4.40;;;;;;;10.49;82.10;101301.19;5034799;28;20067;-71
2020/12/17 05:58:52;;;;;;;10.32;4.40;;;;;;;10.51;81.82;101314.69;5034926;28;20056;-69
2020/12/17 06:05:48;;;;;;;13.05;4.40;;;;;;;10.41;82.02;101326.66;5067946;28;20060;-69
2020/12/17 06:08:17;;;;;;;6.50;3.47;;;;;;;10.56;82.06;101331.94;5036153;28;20056;-64
2020/12/17 06:10:47;;;;;;;10.30;4.72;;;;;;;10.35;82.42;101333.34;5053753;28;20518;-64
2020/12/17 06:13:15;;;;;;;14.18;4.63;;;;;;;10.51;82.22;101331.19;5053446;28;20514;-65
2020/12/17 06:20:11;;;;;;;8.95;4.20;;;;;;;10.46;82.65;101339.53;5052730;28;20099;-64
2020/12/17 06:22:37;;;;;;;8.80;3.70;;;;;;;10.62;81.83;101344.50;5034548;28;20056;-65
2020/12/17 06:25:10;;;;;;;12.38;4.78;;;;;;;10.42;82.02;101344.81;5052747;28;20048;-65
2020/12/17 06:27:38;;;;;;;13.98;5.25;;;;;;;10.35;82.50;101360.88;5035650;28;20049;-63
2020/12/17 06:34:36;;;;;;;13.73;4.63;;;;;;;10.46;81.94;101361.56;5052398;28;20048;-63
2020/12/17 06:37:04;;;;;;;14.77;4.43;;;;;;;10.52;81.74;101368.63;5052435;28;20412;-64
2020/12/17 06:39:32;;;;;;;13.02;4.70;;;;;;;10.52;81.91;101372.22;5052363;28;20057;-64
2020/12/17 06:41:58;;;;;;;12.15;4.50;;;;;;;10.44;82.24;101383.91;5018579;28;20531;-64
2020/12/17 06:48:55;;;;;;;13.70;6.13;;;;;;;10.50;82.14;101390.97;5034133;28;20052;-65
2020/12/17 06:51:41;;;;;;;19.63;5.70;;;;;;;10.48;82.33;101393.19;5052044;28;20060;-64
2020/12/17 06:54:29;;;;;;;13.80;5.90;;;;;;;10.51;82.16;101398.13;5052545;28;20056;-64
2020/12/17 06:57:10;;;;;;;15.10;5.43;;;;;;;10.54;82.20;101403.03;4971471;28;20050;-64
2020/12/17 06:59:39;;;;;;;15.93;4.85;;;;;;;10.61;82.28;101403.50;4971535;28;20061;-64
2020/12/17 07:02:07;;;;;;;20.77;5.13;;;;;;;10.45;82.87;101404.81;4941794;28;20055;-64
2020/12/17 07:04:49;;;;;;;14.45;4.80;;;;;;;10.53;82.47;101403.34;4974908;28;20358;-65
2020/12/17 07:07:22;;;;;;;18.85;4.63;;;;;;;10.62;82.63;101409.81;4959802;28;20058;-66
2020/12/17 07:09:56;;;;;;;13.30;4.53;;;;;;;10.64;82.32;101410.31;4959427;28;20051;-66
2020/12/17 07:12:35;;;;;;;13.85;4.47;;;;;;;10.73;82.15;101411.31;4974814;28;20062;-68
2020/12/17 07:15:25;;;;;;;17.20;4.80;;;;;;;10.92;81.63;101412.94;4974486;28;20054;-64
2020/12/17 07:17:52;;;;;;;13.27;4.05;;;;;;;11.04;81.32;101420.75;4974268;28;20042;-65
2020/12/17 07:20:30;;;;;;;16.17;4.50;;;;;;;10.94;81.19;101424.50;4974739;28;20069;-64
2020/12/17 07:22:58;;;;;;;12.93;4.50;;;;;;;10.86;81.74;101424.34;4958890;28;20399;-66
2020/12/17 07:25:34;;;;;;;20.02;5.00;;;;;;;10.94;81.47;101435.53;4975266;28;20055;-65
2020/12/17 07:28:01;;;;;;;11.77;4.78;;;;;;;10.90;81.62;101437.22;4974698;28;20055;-64
2020/12/17 07:30:29;;;;;;;14.57;5.13;;;;;;;10.90;81.89;101433.66;4972827;28;20055;-64
2020/12/17 07:32:56;;;;;;;16.08;4.97;;;;;;;10.93;81.66;101444.91;4975028;28;20510;-61
2020/12/17 07:35:27;;;;;;;15.93;5.88;;;;;;;10.88;81.73;101447.72;5035502;28;20075;-63
2020/12/17 07:37:55;;;;;;;24.45;9.05;;;;;;;10.99;81.32;101449.22;5055213;28;20063;-64
2020/12/17 07:40:35;;;;;;;48.15;21.35;;;;;;;11.14;81.22;101446.22;5037001;28;20369;-66
2020/12/17 07:43:13;;;;;;;19.08;7.05;;;;;;;11.25;80.56;101453.22;5054849;28;20060;-67
2020/12/17 07:45:53;;;;;;;19.90;5.65;;;;;;;11.04;80.85;101462.94;5036891;28;20496;-64
2020/12/17 07:48:41;;;;;;;21.25;6.22;;;;;;;11.11;81.04;101466.13;5054804;28;20052;-66
2020/12/17 07:51:08;;;;;;;20.98;6.00;;;;;;;11.09;81.05;101470.28;5037313;28;20049;-65
2020/12/17 07:53:36;;;;;;;22.10;8.32;;;;;;;11.13;80.60;101469.41;5037251;28;20052;-66
2020/12/17 07:56:04;;;;;;;24.35;9.23;;;;;;;11.08;80.47;101474.19;5036415;28;20511;-67
2020/12/17 07:58:31;;;;;;;24.25;8.60;;;;;;;11.10;80.92;101477.47;5054777;28;20496;-66
2020/12/17 08:00:59;;;;;;;21.65;7.20;;;;;;;11.12;81.02;101486.25;5054275;28;20064;-64
2020/12/17 08:03:26;;;;;;;34.53;7.63;;;;;;;10.88;81.01;101486.31;5054947;28;20049;-63
2020/12/17 08:05:53;;;;;;;37.58;7.97;;;;;;;10.95;80.56;101481.25;5054733;28;20505;-66
2020/12/17 08:08:22;;;;;;;32.90;6.63;;;;;;;10.77;81.43;101484.84;5037754;28;20068;-69
2020/12/17 08:10:49;;;;;;;19.95;5.53;;;;;;;10.87;81.32;101487.44;5054354;28;20045;-65
2020/12/17 08:13:17;;;;;;;18.00;5.50;;;;;;;11.19;80.40;101493.03;5053787;28;20045;-65
2020/12/17 08:15:51;;;;;;;15.95;5.57;;;;;;;11.35;79.54;101497.19;5055059;28;20132;-65
2020/12/17 08:18:26;;;;;;;19.90;5.07;;;;;;;11.29;78.54;101494.81;5053942;28;20056;-66
2020/12/17 08:21:12;;;;;;;21.85;5.38;;;;;;;11.10;78.80;101494.84;5036302;28;20064;-65
2020/12/17 08:23:41;;;;;;;17.02;4.38;;;;;;;11.18;78.94;101496.91;5053578;28;20045;-64
2020/12/17 08:26:16;;;;;;;16.40;5.32;;;;;;;11.34;78.09;101494.75;5053519;28;20052;-70
2020/12/17 08:28:43;;;;;;;20.55;6.10;;;;;;;11.25;78.20;101502.03;5051463;28;20488;-68
2020/12/17 08:31:18;;;;;;;19.85;4.90;;;;;;;11.21;78.46;101509.25;5053117;28;20373;-69
2020/12/17 08:33:52;;;;;;;16.95;5.72;;;;;;;11.30;77.56;101516.59;5034422;28;20136;-70
2020/12/17 08:36:31;;;;;;;24.73;5.47;;;;;;;11.23;78.08;101526.34;5053237;28;20416;-70
2020/12/17 08:39:08;;;;;;;16.75;5.32;;;;;;;11.22;77.96;101525.53;5069360;28;20041;-68
2020/12/17 08:41:56;;;;;;;16.58;4.82;;;;;;;11.18;78.44;101521.72;5037628;28;20060;-66
2020/12/17 08:44:26;;;;;;;19.02;5.18;;;;;;;11.03;79.02;101530.22;5054445;28;20400;-67
2020/12/17 08:46:57;;;;;;;13.35;5.05;;;;;;;11.11;78.99;101539.75;5053190;28;20489;-68
2020/12/17 08:49:25;;;;;;;23.27;6.10;;;;;;;11.22;78.90;101541.25;5053783;28;20041;-66
2020/12/17 08:51:52;;;;;;;18.75;5.45;;;;;;;11.08;79.28;101543.94;5053588;28;20041;-62
2020/12/17 08:54:34;;;;;;;20.25;5.55;;;;;;;11.19;78.67;101542.66;5052770;28;20076;-64
2020/12/17 08:57:09;;;;;;;16.08;5.53;;;;;;;11.40;78.05;101539.63;5035080;28;20049;-66
2020/12/17 08:59:37;;;;;;;24.75;6.50;;;;;;;11.28;78.37;101534.53;5042589;28;20052;-62
2020/12/17 09:02:04;;;;;;;19.95;5.25;;;;;;;11.15;78.93;101540.81;5052350;28;20052;-66
2020/12/17 09:04:31;;;;;;;19.90;4.85;;;;;;;11.29;78.50;101539.78;5053691;28;20052;-64
2020/12/17 09:07:00;;;;;;;18.02;4.78;;;;;;;11.29;78.76;101541.72;5035559;28;20052;-62
2020/12/17 09:09:28;;;;;;;19.95;5.22;;;;;;;11.20;79.05;101541.56;5036391;28;20049;-62
2020/12/17 09:12:06;;;;;;;20.13;4.97;;;;;;;11.25;78.68;101541.47;5037590;28;20047;-61
2020/12/17 09:14:35;;;;;;;21.10;4.75;;;;;;;11.25;78.61;101543.41;5052912;28;20045;-63
2020/12/17 09:17:13;;;;;;;14.90;4.68;;;;;;;11.30;78.64;101551.59;5053138;28;20053;-62
2020/12/17 09:19:40;;;;;;;13.25;4.25;;;;;;;11.30;78.59;101555.19;5045286;28;20226;-63
2020/12/17 09:22:07;;;;;;;23.80;4.88;;;;;;;11.38;78.84;101557.28;5034297;28;20509;-64
2020/12/17 09:24:36;;;;;;;21.27;5.45;;;;;;;11.56;77.64;101561.16;5052760;28;20049;-67
2020/12/17 09:27:26;;;;;;;17.85;4.28;;;;;;;11.48;77.71;101572.03;5051258;28;20489;-63
2020/12/17 09:30:06;;;;;;;13.85;4.15;;;;;;;11.38;77.64;101580.47;5053356;28;20040;-64
2020/12/17 09:32:53;;;;;;;19.20;4.65;;;;;;;11.78;76.79;101582.66;5053356;28;20060;-67
2020/12/17 09:35:37;;;;;;;15.98;4.20;;;;;;;11.82;76.37;101584.50;5052686;28;20045;-64
2020/12/17 09:38:04;;;;;;;14.82;4.25;;;;;;;11.74;76.31;101593.47;5052151;28;20060;-65
2020/12/17 09:40:32;;;;;;;19.77;4.32;;;;;;;11.63;76.84;101591.16;5052459;28;20159;-67
2020/12/17 09:43:05;;;;;;;18.42;4.57;;;;;;;11.51;77.20;101599.84;5052873;28;20484;-64
2020/12/17 09:50:15;;;;;;;12.98;4.10;;;;;;;11.58;76.99;101610.50;5052536;28;20052;-62
2020/12/17 09:52:43;;;;;;;17.75;4.93;;;;;;;11.57;77.24;101614.41;5034586;28;20049;-64
2020/12/17 09:55:14;;;;;;;21.13;4.97;;;;;;;11.79;76.81;101615.47;5052149;28;20048;-64
2020/12/17 09:57:44;;;;;;;20.27;5.03;;;;;;;12.02;76.27;101617.31;5052498;28;20041;-63
2020/12/17 10:00:13;;;;;;;16.05;5.13;;;;;;;12.20;75.81;101613.66;5052874;28;20041;-66
2020/12/17 10:07:09;;;;;;;34.35;13.55;;;;;;;12.42;74.45;101615.78;5052155;28;20563;-65
2020/12/17 10:09:36;;;;;;;51.65;17.40;;;;;;;12.08;75.39;101609.78;5052169;28;20388;-67
2020/12/17 10:12:03;;;;;;;24.50;6.57;;;;;;;12.10;75.49;101613.84;5052002;28;20493;-66
2020/12/17 10:14:32;;;;;;;23.50;5.30;;;;;;;11.97;76.17;101620.16;5034904;28;20049;-70
2020/12/17 10:21:27;;;;;;;19.98;5.35;;;;;;;11.96;76.30;101634.28;5052557;28;20067;-67
2020/12/17 10:23:57;;;;;;;28.00;5.65;;;;;;;11.98;76.37;101627.31;5051307;28;20060;-62
2020/12/17 10:26:24;;;;;;;24.70;5.30;;;;;;;12.13;76.20;101629.81;5051280;28;20052;-62
2020/12/17 10:28:51;;;;;;;27.50;6.00;;;;;;;12.08;75.84;101631.84;5052185;28;20056;-62
2020/12/17 10:35:48;;;;;;;19.52;5.55;;;;;;;12.07;76.14;101641.25;5053848;28;20132;-63
2020/12/17 10:38:15;;;;;;;23.23;5.78;;;;;;;11.91;76.84;101637.09;5056216;28;20338;-62
2020/12/17 10:40:42;;;;;;;30.90;6.20;;;;;;;12.00;77.17;101640.81;5056091;28;20060;-61
2020/12/17 10:43:09;;;;;;;28.23;6.05;;;;;;;12.00;77.03;101640.81;5038508;28;20052;-63
2020/12/17 10:45:36;;;;;;;25.83;6.13;;;;;;;12.00;76.91;101646.34;5038207;28;20056;-62
2020/12/17 10:48:08;;;;;;;21.73;4.72;;;;;;;11.98;77.19;101640.28;5056257;28;20503;-63
2020/12/17 10:50:35;;;;;;;22.23;5.13;;;;;;;11.96;76.40;101643.34;5056326;28;20052;-64
2020/12/17 10:53:02;;;;;;;20.40;5.68;;;;;;;12.02;76.78;101644.94;5054552;28;20060;-64
2020/12/17 10:55:29;;;;;;;15.90;5.07;;;;;;;11.95;76.94;101638.97;5055644;28;20048;-63
2020/12/17 10:57:56;;;;;;;14.00;5.07;;;;;;;12.02;77.42;101635.81;5055233;28;20053;-66
2020/12/17 11:00:23;;;;;;;20.95;6.07;;;;;;;12.22;76.71;101643.78;5038039;28;20082;-66
2020/12/17 11:02:50;;;;;;;18.83;5.22;;;;;;;12.45;75.78;101645.56;5055223;28;20362;-65
2020/12/17 11:05:16;;;;;;;20.17;6.30;;;;;;;12.08;76.68;101651.19;5055480;28;20369;-63
2020/12/17 11:07:44;;;;;;;17.35;5.82;;;;;;;12.16;76.89;101642.22;5055483;28;20045;-63
2020/12/17 11:10:11;;;;;;;15.40;5.38;;;;;;;12.07;77.06;101642.06;5056236;28;20056;-60
2020/12/17 11:12:38;;;;;;;17.33;5.68;;;;;;;11.99;77.62;101641.94;5055792;28;20049;-67
2020/12/17 11:15:05;;;;;;;19.00;5.00;;;;;;;11.87;78.24;101642.38;5037417;28;20056;-66
2020/12/17 11:17:32;;;;;;;19.88;5.40;;;;;;;11.97;78.18;101646.94;5054691;28;20060;-65
2020/12/17 11:19:59;;;;;;;20.08;6.93;;;;;;;11.92;78.32;101647.84;5055114;28;20064;-65
2020/12/17 11:22:26;;;;;;;15.50;6.72;;;;;;;11.85;79.00;101649.34;5037108;28;20053;-65
2020/12/17 11:24:53;;;;;;;19.20;8.63;;;;;;;11.88;79.02;101651.50;5054743;28;20064;-69
2020/12/17 11:27:20;;;;;;;19.05;5.57;;;;;;;11.88;79.34;101648.72;5055193;28;20045;-69
2020/12/17 11:29:46;;;;;;;18.38;6.38;;;;;;;11.91;79.53;101654.47;5037377;28;20053;-66
2020/12/17 11:32:14;;;;;;;19.75;5.85;;;;;;;11.81;79.88;101656.56;5036717;28;20049;-64
2020/12/17 11:34:41;;;;;;;19.60;5.72;;;;;;;11.85;79.97;101649.34;5054907;28;20052;-63
2020/12/17 11:37:08;;;;;;;20.67;5.53;;;;;;;11.93;79.71;101648.66;5054697;28;20053;-66
2020/12/17 11:39:35;;;;;;;19.63;5.43;;;;;;;11.90;79.50;101649.25;5055673;28;20137;-61
2020/12/17 11:42:02;;;;;;;13.45;5.07;;;;;;;11.85;80.11;101643.81;5054020;28;20049;-65
2020/12/17 11:44:29;;;;;;;14.43;5.57;;;;;;;11.86;80.45;101642.69;5054879;28;20376;-64
2020/12/17 11:46:55;;;;;;;12.85;4.78;;;;;;;11.99;80.37;101645.53;5053944;28;20381;-65
2020/12/17 11:49:22;;;;;;;15.25;5.05;;;;;;;11.96;80.73;101634.28;5054777;28;20057;-65
2020/12/17 11:51:53;;;;;;;13.32;4.60;;;;;;;11.99;80.64;101636.41;5054998;28;20052;-64
2020/12/17 11:54:20;;;;;;;17.13;4.05;;;;;;;11.91;80.92;101637.91;5051672;28;20166;-65
2020/12/17 11:56:49;;;;;;;13.48;4.50;;;;;;;12.23;79.83;101637.13;5054763;28;20407;-66
2020/12/17 11:59:17;;;;;;;20.00;9.90;;;;;;;12.14;79.58;101631.47;5053905;28;20061;-65
2020/12/17 12:01:45;;;;;;;14.45;5.80;;;;;;;12.23;79.13;101626.91;5054322;28;20061;-64
2020/12/17 12:04:13;;;;;;;22.02;7.75;;;;;;;12.19;79.03;101633.31;5054775;28;20055;-65
2020/12/17 12:06:40;;;;;;;16.08;5.72;;;;;;;12.32;78.46;101632.56;5053871;28;20045;-66
2020/12/17 12:09:07;;;;;;;10.82;3.30;;;;;;;12.26;78.39;101633.75;5054158;28;20064;-62
2020/12/17 12:11:34;;;;;;;18.42;4.53;;;;;;;12.14;78.82;101634.22;5054478;28;20049;-64
2020/12/17 12:14:02;;;;;;;31.58;5.13;;;;;;;12.24;78.27;101631.28;5054241;28;20049;-66
2020/12/17 12:16:29;;;;;;;26.83;5.55;;;;;;;12.43;77.99;101631.22;5036909;28;20053;-69
2020/12/17 12:18:56;;;;;;;16.40;4.65;;;;;;;12.64;77.08;101626.19;5054953;28;20049;-67
2020/12/17 12:21:23;;;;;;;14.15;4.80;;;;;;;12.95;75.75;101636.34;5054301;28;20052;-66
2020/12/17 12:23:50;;;;;;;17.15;4.53;;;;;;;13.12;74.92;101635.75;5053819;28;20129;-63
2020/12/17 12:26:17;;;;;;;12.88;4.70;;;;;;;12.86;75.75;101632.66;5053447;28;20065;-66
2020/12/17 12:28:44;;;;;;;16.25;4.65;;;;;;;12.97;75.48;101630.50;5053466;28;20049;-63
2020/12/17 12:31:14;;;;;;;13.70;4.13;;;;;;;13.09;74.52;101636.38;5036448;28;20057;-67
2020/12/17 12:38:07;;;;;;;28.33;11.40;;;;;;;12.58;75.79;101625.44;5053976;28;20068;-64
2020/12/17 12:40:35;;;;;;;15.85;3.95;;;;;;;12.61;75.13;101627.59;5054461;28;20072;-64
2020/12/17 12:43:02;;;;;;;15.80;4.57;;;;;;;12.63;75.30;101627.28;5053330;28;20103;-65
2020/12/17 12:45:29;;;;;;;9.13;3.88;;;;;;;12.58;75.81;101630.97;5053420;28;20134;-65
2020/12/17 12:52:35;;;;;;;16.35;4.55;;;;;;;12.83;74.77;101624.94;5053356;28;20049;-68